createdAt,value
2018-01-29T00:00:37.068Z,99464.56
2018-01-29T00:01:39.927Z,99455.77
2018-01-29T00:02:43.137Z,99454.37
2018-01-29T00:03:46.137Z,99457.88
2018-01-29T00:04:49.052Z,99455.75
2018-01-29T00:05:51.955Z,99462.40
2018-01-29T00:06:54.809Z,99451.14
2018-01-29T00:07:57.599Z,99457.72
2018-01-29T00:09:00.843Z,99461.24
2018-01-29T00:10:03.694Z,99462.40
2018-01-29T00:11:06.537Z,99461.41
2018-01-29T00:12:09.365Z,99451.92
2018-01-29T00:13:12.196Z,99460.32
2018-01-29T00:14:15.889Z,99459.83
2018-01-29T00:15:19.230Z,99464.89
2018-01-29T00:16:22.798Z,99459.63
2018-01-29T00:17:25.618Z,99460.20
2018-01-29T00:18:28.499Z,99463.37
2018-01-29T00:19:31.382Z,99452.18
2018-01-29T00:20:34.312Z,99452.57
2018-01-29T00:21:37.514Z,99463.34
2018-01-29T00:22:40.384Z,99452.25
2018-01-29T00:23:43.275Z,99453.47
2018-01-29T00:24:46.128Z,99454.39
2018-01-29T00:25:49.149Z,99455.59
2018-01-29T00:26:52.012Z,99454.69
2018-01-29T00:27:55.352Z,99463.97
2018-01-29T00:28:58.292Z,99456.28
2018-01-29T00:30:01.199Z,99452.16
2018-01-29T00:31:04.092Z,99460.19
2018-01-29T00:32:06.978Z,99463.88
2018-01-29T00:33:09.833Z,99460.58
2018-01-29T00:34:13.229Z,99462.13
2018-01-29T00:35:16.093Z,99453.56
2018-01-29T00:36:19.001Z,99459.26
2018-01-29T00:37:21.862Z,99453.63
2018-01-29T00:38:24.743Z,99450.17
2018-01-29T00:39:27.626Z,99459.45
2018-01-29T00:40:30.864Z,99452.75
2018-01-29T00:41:33.783Z,99445.05
2018-01-29T00:42:36.693Z,99451.48
2018-01-29T00:43:39.690Z,99447.38
2018-01-29T00:44:42.563Z,99448.73
2018-01-29T00:45:45.481Z,99457.69
2018-01-29T00:46:48.719Z,99455.96
2018-01-29T00:47:51.653Z,99450.09
2018-01-29T00:48:54.686Z,99455.55
2018-01-29T00:49:57.557Z,99450.84
2018-01-29T00:51:00.437Z,99451.05
2018-01-29T00:52:03.314Z,99448.67
2018-01-29T00:53:06.580Z,99449.77
2018-01-29T00:54:09.452Z,99444.64
2018-01-29T00:55:12.376Z,99453.00
2018-01-29T00:56:15.285Z,99446.97
2018-01-29T00:57:18.300Z,99450.47
2018-01-29T00:58:21.187Z,99448.88
2018-01-29T00:59:24.472Z,99444.56
2018-01-29T01:00:27.348Z,99446.53
2018-01-29T01:01:30.219Z,99441.27
2018-01-29T01:02:33.131Z,99450.01
2018-01-29T01:03:35.997Z,99445.14
2018-01-29T01:04:38.983Z,99444.09
2018-01-29T01:05:42.240Z,99442.56
2018-01-29T01:06:45.134Z,99444.50
2018-01-29T01:07:47.988Z,99443.92
2018-01-29T01:08:50.918Z,99443.34
2018-01-29T01:09:53.844Z,99448.79
2018-01-29T01:10:56.757Z,99444.20
2018-01-29T01:12:00.130Z,99451.42
2018-01-29T01:13:03.024Z,99440.71
2018-01-29T01:14:05.882Z,99447.10
2018-01-29T01:15:08.752Z,99448.93
2018-01-29T01:16:11.747Z,99454.67
2018-01-29T01:17:14.611Z,99449.62
2018-01-29T01:18:17.983Z,99448.44
2018-01-29T01:19:20.907Z,99447.52
2018-01-29T01:20:23.796Z,99445.72
2018-01-29T01:21:26.705Z,99449.64
2018-01-29T01:22:29.583Z,99447.31
2018-01-29T01:23:32.468Z,99446.62
2018-01-29T01:24:35.786Z,99448.56
2018-01-29T01:25:38.682Z,99447.42
2018-01-29T01:26:41.542Z,99440.02
2018-01-29T01:27:44.442Z,99441.29
2018-01-29T01:28:47.310Z,99432.75
2018-01-29T01:29:50.209Z,99430.61
2018-01-29T01:30:53.591Z,99427.86
2018-01-29T01:31:56.564Z,99426.04
2018-01-29T01:32:59.407Z,99426.13
2018-01-29T01:34:02.297Z,99439.20
2018-01-29T01:35:05.200Z,99428.25
2018-01-29T01:36:08.146Z,99427.31
2018-01-29T01:37:11.434Z,99426.38
2018-01-29T01:38:14.307Z,99432.40
2018-01-29T01:39:17.210Z,99430.86
2018-01-29T01:40:20.108Z,99425.22
2018-01-29T01:41:22.980Z,99427.77
2018-01-29T01:42:25.841Z,99420.92
2018-01-29T01:43:29.103Z,99426.03
2018-01-29T01:44:31.980Z,99424.23
2018-01-29T01:45:34.852Z,99421.47
2018-01-29T01:46:37.726Z,99424.42
2018-01-29T01:47:40.644Z,99425.16
2018-01-29T01:48:43.552Z,99433.52
2018-01-29T01:49:46.726Z,99418.75
2018-01-29T01:50:49.609Z,99422.39
2018-01-29T01:51:52.491Z,99421.06
2018-01-29T01:52:55.348Z,99418.02
2018-01-29T01:53:58.497Z,99419.91
2018-01-29T01:55:01.388Z,99419.28
2018-01-29T01:56:04.610Z,99422.77
2018-01-29T01:57:07.477Z,99423.16
2018-01-29T01:58:10.423Z,99416.61
2018-01-29T01:59:13.327Z,99410.77
2018-01-29T02:00:16.215Z,99408.19
2018-01-29T02:01:19.133Z,99408.14
2018-01-29T02:02:22.470Z,99410.08
2018-01-29T02:03:25.343Z,99408.35
2018-01-29T02:04:28.189Z,99403.67
2018-01-29T02:05:31.053Z,99401.11
2018-01-29T02:06:33.954Z,99395.05
2018-01-29T02:07:36.819Z,99398.76
2018-01-29T02:08:40.083Z,99394.44
2018-01-29T02:09:43.019Z,99393.45
2018-01-29T02:10:45.889Z,99390.31
2018-01-29T02:11:48.759Z,99394.00
2018-01-29T02:12:51.629Z,99394.39
2018-01-29T02:13:54.520Z,99386.42
2018-01-29T02:14:57.745Z,99383.31
2018-01-29T02:16:00.593Z,99387.20
2018-01-29T02:17:03.740Z,99389.14
2018-01-29T02:18:06.596Z,99380.79
2018-01-29T02:19:09.464Z,99371.23
2018-01-29T02:20:12.461Z,99375.91
2018-01-29T02:21:15.790Z,99375.15
2018-01-29T02:22:18.685Z,99370.08
2018-01-29T02:23:21.561Z,99370.28
2018-01-29T02:24:24.430Z,99369.89
2018-01-29T02:25:27.382Z,99362.33
2018-01-29T02:26:30.260Z,99360.53
2018-01-29T02:27:33.450Z,99360.11
2018-01-29T02:28:36.319Z,99363.44
2018-01-29T02:29:39.179Z,99357.62
2018-01-29T02:30:42.045Z,99358.03
2018-01-29T02:31:44.936Z,99354.73
2018-01-29T02:32:47.824Z,99358.61
2018-01-29T02:33:51.108Z,99356.86
2018-01-29T02:34:53.993Z,99356.05
2018-01-29T02:35:56.886Z,99354.72
2018-01-29T02:36:59.786Z,99358.98
2018-01-29T02:38:02.713Z,99354.12
2018-01-29T02:39:05.946Z,99352.97
2018-01-29T02:40:09.174Z,99351.60
2018-01-29T02:41:12.077Z,99353.15
2018-01-29T02:42:14.953Z,99354.53
2018-01-29T02:43:17.991Z,99348.88
2018-01-29T02:44:20.922Z,99346.73
2018-01-29T02:45:23.937Z,99348.88
2018-01-29T02:46:27.440Z,99348.70
2018-01-29T02:47:30.386Z,99343.65
2018-01-29T02:48:33.394Z,99340.55
2018-01-29T02:49:36.349Z,99339.59
2018-01-29T02:50:39.464Z,99346.75
2018-01-29T02:51:42.490Z,99342.90
2018-01-29T02:52:45.917Z,99343.27
2018-01-29T02:53:48.964Z,99342.72
2018-01-29T02:54:52.066Z,99340.98
2018-01-29T02:55:55.103Z,99343.31
2018-01-29T02:56:58.229Z,99338.80
2018-01-29T02:58:01.333Z,99334.34
2018-01-29T02:59:04.788Z,99334.94
2018-01-29T03:00:07.720Z,99330.48
2018-01-29T03:01:10.649Z,99336.72
2018-01-29T03:02:13.585Z,99333.23
2018-01-29T03:03:16.487Z,99324.48
2018-01-29T03:04:19.331Z,99323.31
2018-01-29T03:05:22.612Z,99331.48
2018-01-29T03:06:26.024Z,99329.73
2018-01-29T03:07:28.839Z,99322.55
2018-01-29T03:08:31.644Z,99326.84
2018-01-29T03:09:34.464Z,99314.20
2018-01-29T03:10:37.307Z,99320.20
2018-01-29T03:11:40.478Z,99323.69
2018-01-29T03:12:43.303Z,99332.47
2018-01-29T03:13:46.112Z,99318.89
2018-01-29T03:14:48.984Z,99326.28
2018-01-29T03:15:51.813Z,99319.07
2018-01-29T03:16:54.648Z,99316.97
2018-01-29T03:17:57.931Z,99312.49
2018-01-29T03:19:00.762Z,99313.86
2018-01-29T03:20:03.722Z,99321.83
2018-01-29T03:21:06.650Z,99314.06
2018-01-29T03:22:09.589Z,99317.55
2018-01-29T03:23:12.538Z,99314.82
2018-01-29T03:24:16.220Z,99323.59
2018-01-29T03:25:19.175Z,99316.03
2018-01-29T03:26:22.152Z,99312.52
2018-01-29T03:27:24.993Z,99315.80
2018-01-29T03:28:27.830Z,99315.62
2018-01-29T03:29:30.652Z,99318.77
2018-01-29T03:30:33.869Z,99320.34
2018-01-29T03:31:36.727Z,99319.19
2018-01-29T03:32:39.565Z,99320.13
2018-01-29T03:33:42.423Z,99324.23
2018-01-29T03:34:45.223Z,99323.04
2018-01-29T03:35:48.170Z,99314.13
2018-01-29T03:36:51.395Z,99310.05
2018-01-29T03:37:54.291Z,99313.16
2018-01-29T03:38:57.242Z,99311.00
2018-01-29T03:40:00.218Z,99306.54
2018-01-29T03:41:03.139Z,99313.37
2018-01-29T03:42:06.051Z,99312.77
2018-01-29T03:43:09.268Z,99310.23
2018-01-29T03:44:12.218Z,99309.86
2018-01-29T03:45:15.127Z,99315.92
2018-01-29T03:46:18.032Z,99309.45
2018-01-29T03:47:20.955Z,99309.66
2018-01-29T03:48:23.860Z,99304.00
2018-01-29T03:49:27.140Z,99305.02
2018-01-29T03:50:30.139Z,99309.90
2018-01-29T03:51:33.020Z,99301.08
2018-01-29T03:52:35.931Z,99308.89
2018-01-29T03:53:38.855Z,99302.31
2018-01-29T03:54:41.770Z,99308.14
2018-01-29T03:55:45.924Z,99301.16
2018-01-29T03:56:48.807Z,99308.14
2018-01-29T03:57:51.733Z,99301.55
2018-01-29T03:58:54.634Z,99303.88
2018-01-29T03:59:57.575Z,99295.90
2018-01-29T04:01:00.463Z,99292.02
2018-01-29T04:02:03.868Z,99289.47
2018-01-29T04:03:06.775Z,99297.66
2018-01-29T04:04:09.684Z,99288.70
2018-01-29T04:05:12.600Z,99282.67
2018-01-29T04:06:15.528Z,99278.23
2018-01-29T04:07:18.427Z,99276.50
2018-01-29T04:08:21.755Z,99268.68
2018-01-29T04:09:24.646Z,99257.97
2018-01-29T04:10:27.552Z,99267.11
2018-01-29T04:11:30.498Z,99258.55
2018-01-29T04:12:33.423Z,99259.22
2018-01-29T04:13:36.323Z,99260.60
2018-01-29T04:14:39.573Z,99256.52
2018-01-29T04:15:43.331Z,99261.77
2018-01-29T04:16:46.217Z,99258.66
2018-01-29T04:17:49.115Z,99254.98
2018-01-29T04:18:52.008Z,99252.69
2018-01-29T04:19:55.400Z,99255.07
2018-01-29T04:20:58.344Z,99252.70
2018-01-29T04:22:01.260Z,99255.43
2018-01-29T04:23:04.181Z,99256.59
2018-01-29T04:24:07.072Z,99253.30
2018-01-29T04:25:10.036Z,99250.00
2018-01-29T04:26:13.398Z,99251.75
2018-01-29T04:27:16.302Z,99254.68
2018-01-29T04:28:19.199Z,99252.14
2018-01-29T04:29:22.110Z,99254.29
2018-01-29T04:30:24.999Z,99255.45
2018-01-29T04:31:28.069Z,99254.48
2018-01-29T04:32:31.508Z,99255.07
2018-01-29T04:33:34.398Z,99259.73
2018-01-29T04:34:37.354Z,99256.81
2018-01-29T04:35:40.254Z,99254.87
2018-01-29T04:36:43.193Z,99254.32
2018-01-29T04:37:46.089Z,99258.80
2018-01-29T04:38:48.981Z,99252.17
2018-01-29T04:39:51.884Z,99252.56
2018-01-29T04:40:54.704Z,99257.84
2018-01-29T04:41:57.643Z,99261.57
2018-01-29T04:43:00.538Z,99254.15
2018-01-29T04:44:04.106Z,99249.88
2018-01-29T04:45:07.158Z,99253.16
2018-01-29T04:46:10.259Z,99256.06
2018-01-29T04:47:13.283Z,99247.13
2018-01-29T04:48:16.203Z,99260.00
2018-01-29T04:49:19.084Z,99262.34
2018-01-29T04:50:22.314Z,99239.80
2018-01-29T04:51:25.233Z,99243.30
2018-01-29T04:52:28.209Z,99248.73
2018-01-29T04:53:31.230Z,99239.56
2018-01-29T04:54:34.167Z,99242.11
2018-01-29T04:55:37.109Z,99239.02
2018-01-29T04:56:40.014Z,99245.63
2018-01-29T04:57:42.949Z,99249.13
2018-01-29T04:58:45.845Z,99262.35
2018-01-29T04:59:48.837Z,99252.03
2018-01-29T05:00:51.749Z,99253.59
2018-01-29T05:01:54.919Z,99258.47
2018-01-29T05:02:57.931Z,99252.84
2018-01-29T05:04:00.862Z,99261.18
2018-01-29T05:05:03.780Z,99255.34
2018-01-29T05:06:06.678Z,99262.14
2018-01-29T05:07:09.866Z,99262.94
2018-01-29T05:08:12.775Z,99266.06
2018-01-29T05:09:15.673Z,99260.61
2018-01-29T05:10:18.650Z,99260.80
2018-01-29T05:11:21.588Z,99264.50
2018-01-29T05:12:24.523Z,99265.67
2018-01-29T05:13:27.859Z,99246.44
2018-01-29T05:14:30.790Z,99254.22
2018-01-29T05:15:33.682Z,99257.72
2018-01-29T05:16:36.579Z,99250.89
2018-01-29T05:17:39.502Z,99252.03
2018-01-29T05:18:42.483Z,99261.20
2018-01-29T05:19:45.725Z,99247.03
2018-01-29T05:20:48.656Z,99256.41
2018-01-29T05:21:51.825Z,99251.34
2018-01-29T05:22:54.709Z,99259.92
2018-01-29T05:23:57.585Z,99255.23
2018-01-29T05:25:00.495Z,99256.01
2018-01-29T05:26:03.733Z,99253.86
2018-01-29T05:27:06.643Z,99264.74
2018-01-29T05:28:09.627Z,99256.40
2018-01-29T05:29:12.534Z,99250.57
2018-01-29T05:30:15.470Z,99254.48
2018-01-29T05:31:18.402Z,99262.42
2018-01-29T05:32:21.819Z,99251.15
2018-01-29T05:33:24.749Z,99254.27
2018-01-29T05:34:27.818Z,99256.20
2018-01-29T05:35:30.841Z,99263.59
2018-01-29T05:36:34.579Z,99258.34
2018-01-29T05:37:37.625Z,99256.98
2018-01-29T05:38:41.044Z,99243.56
2018-01-29T05:39:44.072Z,99243.95
2018-01-29T05:40:47.002Z,99242.98
2018-01-29T05:41:49.973Z,99248.41
2018-01-29T05:42:52.817Z,99244.89
2018-01-29T05:43:55.779Z,99250.53
2018-01-29T05:44:58.968Z,99243.52
2018-01-29T05:46:01.821Z,99245.47
2018-01-29T05:47:04.829Z,99247.80
2018-01-29T05:48:07.722Z,99235.17
2018-01-29T05:49:10.618Z,99244.70
2018-01-29T05:50:13.419Z,99252.27
2018-01-29T05:51:17.190Z,99241.98
2018-01-29T05:52:20.160Z,99255.59
2018-01-29T05:53:22.927Z,99247.82
2018-01-29T05:54:26.004Z,99241.81
2018-01-29T05:55:28.967Z,99248.81
2018-01-29T05:56:31.917Z,99239.06
2018-01-29T05:57:35.249Z,99240.61
2018-01-29T05:58:38.248Z,99235.52
2018-01-29T05:59:41.175Z,99235.73
2018-01-29T06:00:44.117Z,99240.21
2018-01-29T06:01:47.043Z,99245.09
2018-01-29T06:02:50.081Z,99240.40
2018-01-29T06:03:53.266Z,99241.58
2018-01-29T06:04:56.329Z,99237.09
2018-01-29T06:05:59.277Z,99230.67
2018-01-29T06:07:02.179Z,99237.88
2018-01-29T06:08:05.086Z,99238.84
2018-01-29T06:09:08.038Z,99233.78
2018-01-29T06:10:11.231Z,99235.73
2018-01-29T06:11:14.135Z,99233.20
2018-01-29T06:12:17.056Z,99229.28
2018-01-29T06:13:19.935Z,99239.04
2018-01-29T06:14:22.878Z,99231.44
2018-01-29T06:15:25.794Z,99229.14
2018-01-29T06:16:29.031Z,99230.70
2018-01-29T06:17:31.998Z,99229.34
2018-01-29T06:18:34.917Z,99223.69
2018-01-29T06:19:37.906Z,99227.02
2018-01-29T06:20:40.829Z,99229.73
2018-01-29T06:21:43.761Z,99225.42
2018-01-29T06:22:46.945Z,99225.44
2018-01-29T06:23:49.713Z,99226.05
2018-01-29T06:24:52.492Z,99226.61
2018-01-29T06:25:55.411Z,99229.16
2018-01-29T06:26:58.376Z,99230.89
2018-01-29T06:28:01.440Z,99227.17
2018-01-29T06:29:04.671Z,99227.77
2018-01-29T06:30:07.648Z,99228.36
2018-01-29T06:31:10.616Z,99236.13
2018-01-29T06:32:13.554Z,99217.27
2018-01-29T06:33:16.503Z,99220.38
2018-01-29T06:34:19.430Z,99224.45
2018-01-29T06:35:22.793Z,99218.02
2018-01-29T06:36:26.732Z,99210.06
2018-01-29T06:37:29.753Z,99223.86
2018-01-29T06:38:32.685Z,99212.38
2018-01-29T06:39:35.729Z,99220.58
2018-01-29T06:40:38.723Z,99221.56
2018-01-29T06:41:41.788Z,99218.63
2018-01-29T06:42:45.310Z,99208.91
2018-01-29T06:43:48.599Z,99208.14
2018-01-29T06:44:51.604Z,99201.91
2018-01-29T06:45:54.602Z,99212.19
2018-01-29T06:46:57.776Z,99206.75
2018-01-29T06:48:00.694Z,99206.17
2018-01-29T06:49:03.591Z,99203.27
2018-01-29T06:50:06.498Z,99203.25
2018-01-29T06:51:09.468Z,99198.21
2018-01-29T06:52:12.380Z,99208.13
2018-01-29T06:53:15.860Z,99209.86
2018-01-29T06:54:18.817Z,99212.78
2018-01-29T06:55:21.777Z,99203.59
2018-01-29T06:56:24.700Z,99206.75
2018-01-29T06:57:27.720Z,99203.81
2018-01-29T06:58:30.645Z,99204.00
2018-01-29T06:59:34.049Z,99207.73
2018-01-29T07:00:37.035Z,99209.86
2018-01-29T07:01:39.969Z,99208.69
2018-01-29T07:02:42.889Z,99212.79
2018-01-29T07:03:46.020Z,99208.27
2018-01-29T07:04:49.030Z,99209.43
2018-01-29T07:05:52.310Z,99206.13
2018-01-29T07:06:55.342Z,99215.65
2018-01-29T07:07:58.271Z,99215.85
2018-01-29T07:09:01.212Z,99215.84
2018-01-29T07:10:04.123Z,99215.84
2018-01-29T07:11:07.038Z,99217.03
2018-01-29T07:12:10.312Z,99222.48
2018-01-29T07:13:13.246Z,99219.59
2018-01-29T07:14:16.171Z,99217.65
2018-01-29T07:15:19.097Z,99222.91
2018-01-29T07:16:22.023Z,99222.50
2018-01-29T07:17:24.979Z,99219.61
2018-01-29T07:18:28.478Z,99216.91
2018-01-29T07:19:31.417Z,99216.50
2018-01-29T07:20:34.339Z,99221.37
2018-01-29T07:21:37.300Z,99207.34
2018-01-29T07:22:40.209Z,99205.97
2018-01-29T07:23:43.166Z,99207.73
2018-01-29T07:24:46.460Z,99213.16
2018-01-29T07:25:49.357Z,99197.41
2018-01-29T07:26:52.251Z,99192.95
2018-01-29T07:27:55.079Z,99203.67
2018-01-29T07:28:57.987Z,99212.81
2018-01-29T07:30:00.860Z,99211.83
2018-01-29T07:31:04.039Z,99211.81
2018-01-29T07:32:06.966Z,99197.61
2018-01-29T07:33:09.987Z,99210.45
2018-01-29T07:34:13.223Z,99213.75
2018-01-29T07:35:16.183Z,99216.65
2018-01-29T07:36:19.081Z,99211.39
2018-01-29T07:37:22.794Z,99206.13
2018-01-29T07:38:25.737Z,99198.59
2018-01-29T07:39:28.733Z,99209.30
2018-01-29T07:40:31.680Z,99203.05
2018-01-29T07:41:34.606Z,99205.20
2018-01-29T07:42:37.961Z,99198.94
2018-01-29T07:43:40.878Z,99197.56
2018-01-29T07:44:43.728Z,99205.35
2018-01-29T07:45:46.557Z,99196.98
2018-01-29T07:46:49.422Z,99190.61
2018-01-29T07:47:52.254Z,99193.34
2018-01-29T07:48:55.399Z,99214.52
2018-01-29T07:49:58.231Z,99189.42
2018-01-29T07:51:01.120Z,99195.84
2018-01-29T07:52:04.106Z,99196.02
2018-01-29T07:53:07.284Z,99192.14
2018-01-29T07:54:10.222Z,99191.16
2018-01-29T07:55:13.434Z,99186.88
2018-01-29T07:56:16.350Z,99177.56
2018-01-29T07:57:19.296Z,99184.75
2018-01-29T07:58:22.283Z,99170.17
2018-01-29T07:59:25.624Z,99175.62
2018-01-29T08:00:28.531Z,99168.22
2018-01-29T08:01:31.939Z,99169.00
2018-01-29T08:02:34.962Z,99171.92
2018-01-29T08:03:37.912Z,99190.61
2018-01-29T08:04:40.909Z,99177.77
2018-01-29T08:05:43.846Z,99187.88
2018-01-29T08:06:46.790Z,99182.83
2018-01-29T08:07:50.294Z,99186.73
2018-01-29T08:08:54.430Z,99186.10
2018-01-29T08:09:57.422Z,99178.71
2018-01-29T08:11:00.380Z,99174.08
2018-01-29T08:12:03.300Z,99179.13
2018-01-29T08:13:06.195Z,99178.14
2018-01-29T08:14:09.515Z,99186.31
2018-01-29T08:15:12.466Z,99176.56
2018-01-29T08:16:15.359Z,99169.40
2018-01-29T08:17:18.315Z,99161.82
2018-01-29T08:18:21.359Z,99174.05
2018-01-29T08:19:24.326Z,99167.83
2018-01-29T08:20:27.565Z,99174.64
2018-01-29T08:21:30.461Z,99179.10
2018-01-29T08:22:33.980Z,99177.37
2018-01-29T08:23:36.866Z,99181.08
2018-01-29T08:24:39.897Z,99164.36
2018-01-29T08:25:42.912Z,99172.33
2018-01-29T08:26:45.853Z,99181.86
2018-01-29T08:27:48.753Z,99185.76
2018-01-29T08:28:51.671Z,99176.99
2018-01-29T08:29:54.867Z,99183.43
2018-01-29T08:30:57.841Z,99186.73
2018-01-29T08:32:01.239Z,99192.37
2018-01-29T08:33:04.207Z,99187.71
2018-01-29T08:34:07.150Z,99179.34
2018-01-29T08:35:10.057Z,99176.03
2018-01-29T08:36:13.032Z,99179.52
2018-01-29T08:37:16.043Z,99166.48
2018-01-29T08:38:19.377Z,99165.30
2018-01-29T08:39:22.346Z,99161.23
2018-01-29T08:40:25.496Z,99154.82
2018-01-29T08:41:28.482Z,99173.52
2018-01-29T08:42:31.442Z,99171.77
2018-01-29T08:43:34.458Z,99154.62
2018-01-29T08:44:38.102Z,99171.15
2018-01-29T08:45:41.197Z,99164.55
2018-01-29T08:46:44.200Z,99161.66
2018-01-29T08:47:47.131Z,99166.72
2018-01-29T08:48:50.038Z,99160.89
2018-01-29T08:49:52.967Z,99162.83
2018-01-29T08:50:56.323Z,99176.62
2018-01-29T08:51:59.237Z,99162.23
2018-01-29T08:53:02.281Z,99173.72
2018-01-29T08:54:05.242Z,99170.03
2018-01-29T08:55:08.180Z,99160.89
2018-01-29T08:56:11.118Z,99163.04
2018-01-29T08:57:14.269Z,99162.65
2018-01-29T08:58:17.139Z,99156.59
2018-01-29T08:59:20.127Z,99158.77
2018-01-29T09:00:22.949Z,99165.16
2018-01-29T09:01:25.802Z,99158.12
2018-01-29T09:02:28.731Z,99160.31
2018-01-29T09:03:32.017Z,99157.02
2018-01-29T09:04:34.844Z,99160.49
2018-01-29T09:05:37.689Z,99159.32
2018-01-29T09:06:40.524Z,99156.98
2018-01-29T09:07:43.608Z,99159.15
2018-01-29T09:08:46.543Z,99157.17
2018-01-29T09:09:50.275Z,99160.33
2018-01-29T09:10:53.403Z,99155.05
2018-01-29T09:11:56.367Z,99153.31
2018-01-29T09:13:00.287Z,99160.91
2018-01-29T09:14:03.248Z,99159.34
2018-01-29T09:15:06.173Z,99156.04
2018-01-29T09:16:09.579Z,99165.00
2018-01-29T09:17:12.512Z,99156.81
2018-01-29T09:18:15.443Z,99154.69
2018-01-29T09:19:18.431Z,99157.00
2018-01-29T09:20:21.361Z,99145.50
2018-01-29T09:21:25.195Z,99142.42
2018-01-29T09:22:28.438Z,99153.91
2018-01-29T09:23:31.401Z,99154.46
2018-01-29T09:24:34.324Z,99157.75
2018-01-29T09:25:37.253Z,99143.58
2018-01-29T09:26:40.237Z,99164.02
2018-01-29T09:27:43.179Z,99153.30
2018-01-29T09:28:46.503Z,99157.20
2018-01-29T09:29:49.484Z,99148.24
2018-01-29T09:30:52.432Z,99151.95
2018-01-29T09:31:55.346Z,99155.81
2018-01-29T09:32:58.345Z,99148.83
2018-01-29T09:34:01.343Z,99159.72
2018-01-29T09:35:05.537Z,99157.20
2018-01-29T09:36:08.433Z,99157.97
2018-01-29T09:37:11.256Z,99158.77
2018-01-29T09:38:14.105Z,99156.62
2018-01-29T09:39:16.914Z,99158.77
2018-01-29T09:40:19.870Z,99148.45
2018-01-29T09:41:23.183Z,99164.41
2018-01-29T09:42:26.199Z,99136.57
2018-01-29T09:43:29.250Z,99150.59
2018-01-29T09:44:32.188Z,99142.81
2018-01-29T09:45:35.202Z,99152.16
2018-01-29T09:46:38.171Z,99142.98
2018-01-29T09:47:41.625Z,99150.00
2018-01-29T09:48:44.726Z,99144.57
2018-01-29T09:49:47.837Z,99138.36
2018-01-29T09:50:50.875Z,99150.66
2018-01-29T09:51:53.842Z,99146.33
2018-01-29T09:52:56.759Z,99146.33
2018-01-29T09:54:00.188Z,99144.43
2018-01-29T09:55:03.202Z,99139.53
2018-01-29T09:56:06.755Z,99145.58
2018-01-29T09:57:09.630Z,99143.83
2018-01-29T09:58:12.566Z,99120.87
2018-01-29T09:59:15.499Z,99130.80
2018-01-29T10:00:18.908Z,99135.88
2018-01-29T10:01:21.862Z,99132.97
2018-01-29T10:02:24.832Z,99133.75
2018-01-29T10:03:27.732Z,99121.27
2018-01-29T10:04:30.648Z,99134.13
2018-01-29T10:05:33.765Z,99129.45
2018-01-29T10:06:37.431Z,99134.92
2018-01-29T10:07:40.405Z,99130.43
2018-01-29T10:08:43.351Z,99136.84
2018-01-29T10:09:46.262Z,99145.81
2018-01-29T10:10:49.392Z,99142.49
2018-01-29T10:11:52.313Z,99136.09
2018-01-29T10:12:55.613Z,99140.96
2018-01-29T10:13:58.567Z,99134.33
2018-01-29T10:15:01.497Z,99153.80
2018-01-29T10:16:04.412Z,99133.16
2018-01-29T10:17:07.393Z,99145.25
2018-01-29T10:18:10.331Z,99139.59
2018-01-29T10:19:13.805Z,99129.47
2018-01-29T10:20:16.787Z,99129.67
2018-01-29T10:21:19.746Z,99112.93
2018-01-29T10:22:22.685Z,99112.75
2018-01-29T10:23:25.710Z,99113.31
2018-01-29T10:24:28.696Z,99122.09
2018-01-29T10:25:32.015Z,99116.44
2018-01-29T10:29:12.601Z,99104.17
2018-01-29T10:30:15.572Z,99103.02
2018-01-29T10:32:38.490Z,99105.16
2018-01-29T10:34:08.246Z,99106.70
2018-01-29T10:36:31.601Z,99101.26
2018-01-29T10:37:41.793Z,99112.94
2018-01-29T10:40:22.885Z,99095.80
2018-01-29T10:41:36.948Z,99084.10
2018-01-29T10:45:15.811Z,99089.55
2018-01-29T10:46:21.746Z,99096.39
2018-01-29T10:47:33.418Z,99082.16
2018-01-29T10:48:42.605Z,99088.80
2018-01-29T10:58:11.734Z,99076.11
2018-01-29T10:59:30.598Z,99084.11
2018-01-29T11:04:31.106Z,99077.67
2018-01-29T11:06:58.673Z,99073.01
2018-01-29T11:08:13.130Z,99069.13
2018-01-29T11:09:21.905Z,99075.72
2018-01-29T11:10:52.188Z,99075.95
2018-01-29T11:13:17.251Z,99071.23
2018-01-29T11:14:25.050Z,99068.32
2018-01-29T11:15:31.912Z,99067.35
2018-01-29T11:16:39.295Z,99067.55
2018-01-29T11:17:55.089Z,99049.05
2018-01-29T11:19:13.868Z,99075.94
2018-01-29T11:22:50.928Z,99043.58
2018-01-29T11:25:37.429Z,99057.81
2018-01-29T11:27:57.807Z,99038.33
2018-01-29T11:29:18.509Z,99043.19
2018-01-29T11:37:53.235Z,99040.47
2018-01-29T11:45:34.907Z,99015.73
2018-01-29T11:49:20.777Z,99014.73
2018-01-29T11:56:28.241Z,98997.02
2018-01-29T11:57:41.936Z,98992.53
2018-01-29T12:00:06.006Z,98969.91
2018-01-29T12:01:11.865Z,98973.41
2018-01-29T12:06:21.354Z,98959.19
2018-01-29T12:07:40.234Z,98969.52
2018-01-29T12:20:13.081Z,98956.65
2018-01-29T12:25:22.652Z,98938.49
2018-01-29T19:55:52.182Z,98678.95
2018-01-29T19:59:36.928Z,98714.52
2018-01-29T20:03:40.555Z,98724.05
2018-01-29T20:04:51.793Z,98681.07
2018-01-29T20:07:18.346Z,98722.48
2018-01-29T21:07:22.499Z,98894.64
2018-01-29T21:11:20.727Z,98908.23
2018-01-29T21:12:35.558Z,98910.76
2018-01-29T21:13:58.442Z,98924.16
2018-01-29T21:21:37.059Z,98929.81
2018-01-29T21:22:46.820Z,98929.79
2018-01-29T21:24:08.927Z,98935.63
2018-01-29T21:25:17.677Z,98944.97
2018-01-29T21:55:51.141Z,99012.03
2018-01-29T22:04:58.609Z,99022.07
2018-01-29T22:08:00.046Z,99050.20
2018-01-29T22:10:34.167Z,99055.45
2018-01-29T22:11:48.858Z,99049.08
2018-01-29T22:27:06.524Z,99059.88
2018-01-29T22:32:04.980Z,99075.75
2018-01-29T22:33:10.499Z,99078.25
2018-01-29T22:35:38.691Z,99086.20
2018-01-29T22:38:29.418Z,99069.84
2018-01-29T22:39:45.181Z,99072.53
2018-01-29T22:41:15.054Z,99081.95
2018-01-29T22:47:12.725Z,99099.27
2018-01-29T22:48:32.901Z,99095.77
2018-01-29T22:58:48.817Z,99125.89
